Time;durP1;ratioP1;P1;durP2;ratioP2;P2;SDS_P1;SDS_P2;PMS_P1;PMS_P2;Temp;Humidity;BMP_temperature;BMP_pressure;BME280_temperature;BME280_humidity;BME280_pressure;Samples;Min_cycle;Max_cycle;Signal;HPM_P1;HPM_P2
2023/04/27 00:02:46;;;;;;;10.77;6.20;;;20.60;54.90;;;;;;10561462;28;20476;-23
2023/04/27 00:07:47;;;;;;;9.90;5.85;;;20.60;54.80;;;;;;10561636;28;20491;-23
2023/04/27 00:12:51;;;;;;;11.57;6.00;;;20.50;54.90;;;;;;10562160;28;20046;-23
2023/04/27 00:17:53;;;;;;;7.32;4.63;;;20.50;54.70;;;;;;10565213;28;20078;-24
2023/04/27 00:22:55;;;;;;;;;;;20.40;54.90;;;;;;10560896;28;20054;-23
2023/04/27 00:27:58;;;;;;;7.10;4.78;;;20.40;55.00;;;;;;10565481;28;19920;-22
2023/04/27 00:33:00;;;;;;;7.35;4.22;;;20.40;55.10;;;;;;10569007;28;20122;-24
2023/04/27 00:38:02;;;;;;;7.75;4.22;;;20.30;55.20;;;;;;10577085;28;20527;-23
2023/04/27 00:43:05;;;;;;;7.88;4.75;;;20.30;55.20;;;;;;10570032;28;20096;-23
2023/04/27 00:48:07;;;;;;;8.80;4.70;;;20.30;55.10;;;;;;10572871;28;20044;-23
2023/04/27 00:53:09;;;;;;;8.18;4.38;;;20.20;55.20;;;;;;10576574;28;20683;-22
2023/04/27 00:58:12;;;;;;;9.65;4.32;;;20.20;55.30;;;;;;10572736;28;20040;-24
2023/04/27 01:03:14;;;;;;;6.75;3.50;;;20.20;55.20;;;;;;10572465;28;20135;-23
2023/04/27 01:08:16;;;;;;;5.70;3.60;;;20.10;55.10;;;;;;10567219;28;20135;-21
2023/04/27 01:13:20;;;;;;;7.28;4.30;;;20.10;55.10;;;;;;10565168;28;20756;-24
2023/04/27 01:18:22;;;;;;;6.30;4.20;;;20.00;55.30;;;;;;10577037;28;20039;-23
2023/04/27 01:23:25;;;;;;;7.07;3.58;;;20.00;55.20;;;;;;10557718;28;20130;-20
2023/04/27 01:28:27;;;;;;;5.70;3.45;;;20.00;55.30;;;;;;10562863;28;20047;-23
2023/04/27 01:33:29;;;;;;;5.45;3.30;;;20.00;55.20;;;;;;10561827;28;20118;-23
2023/04/27 01:38:33;;;;;;;;;;;19.90;55.20;;;;;;10561073;28;20047;-24
2023/04/27 01:43:36;;;;;;;6.13;3.47;;;19.90;55.20;;;;;;10562968;28;19960;-24
2023/04/27 01:48:39;;;;;;;6.82;3.65;;;19.80;55.40;;;;;;10574459;28;20055;-23
2023/04/27 01:53:43;;;;;;;7.68;3.13;;;19.90;55.30;;;;;;10570813;28;20044;-23
2023/04/27 01:58:45;;;;;;;5.07;3.03;;;19.80;55.50;;;;;;10573325;28;20071;-23
2023/04/27 02:03:46;;;;;;;4.85;2.90;;;19.70;55.50;;;;;;10568384;28;20047;-23
2023/04/27 02:08:50;;;;;;;15.43;4.13;;;19.70;55.40;;;;;;10572336;28;20048;-23
2023/04/27 02:13:52;;;;;;;5.22;3.20;;;19.70;55.50;;;;;;10568596;28;20035;-23
2023/04/27 02:18:54;;;;;;;5.35;3.20;;;19.70;55.40;;;;;;10571449;28;20043;-23
2023/04/27 02:23:57;;;;;;;5.05;2.78;;;19.70;55.50;;;;;;10568130;28;20078;-21
2023/04/27 02:28:59;;;;;;;4.28;2.63;;;19.60;55.40;;;;;;10559963;28;20151;-23
2023/04/27 02:34:00;;;;;;;4.07;2.42;;;19.60;55.50;;;;;;10558836;28;20564;-23
2023/04/27 02:39:04;;;;;;;6.57;3.03;;;19.50;55.40;;;;;;10552433;28;20071;-24
2023/04/27 02:44:06;;;;;;;3.60;2.70;;;19.60;55.40;;;;;;10560502;28;20048;-23
2023/04/27 02:49:08;;;;;;;3.42;2.28;;;19.50;55.40;;;;;;10549426;28;20052;-23
2023/04/27 02:54:11;;;;;;;4.28;2.63;;;19.50;55.40;;;;;;10561441;28;20186;-22
2023/04/27 02:59:13;;;;;;;4.38;2.42;;;19.50;55.40;;;;;;10561221;28;20059;-24
2023/04/27 03:04:15;;;;;;;4.15;2.60;;;19.40;55.40;;;;;;10565517;28;20464;-23
2023/04/27 03:09:18;;;;;;;4.05;2.10;;;19.40;55.30;;;;;;10557487;28;20072;-23
2023/04/27 03:14:20;;;;;;;3.22;2.33;;;19.40;55.30;;;;;;10567735;28;20047;-24
2023/04/27 03:19:22;;;;;;;3.35;2.20;;;19.40;55.30;;;;;;10574091;28;20056;-23
2023/04/27 03:24:25;;;;;;;2.95;2.03;;;19.30;55.30;;;;;;10555767;28;20104;-23
2023/04/27 03:29:27;;;;;;;2.45;1.73;;;19.40;55.30;;;;;;10565046;28;20055;-24
2023/04/27 03:34:29;;;;;;;3.00;2.10;;;19.30;55.30;;;;;;10565087;28;20075;-24
2023/04/27 03:39:32;;;;;;;2.95;1.90;;;19.30;55.40;;;;;;10567775;28;20472;-23
2023/04/27 03:44:35;;;;;;;3.50;2.10;;;19.30;55.40;;;;;;10541516;28;20054;-22
2023/04/27 03:49:37;;;;;;;3.42;2.00;;;19.20;55.30;;;;;;10559251;28;20132;-23
2023/04/27 03:54:40;;;;;;;2.72;1.80;;;19.20;55.30;;;;;;10567715;28;20048;-24
2023/04/27 03:59:42;;;;;;;1.63;1.33;;;19.20;55.30;;;;;;10564419;28;20044;-24
2023/04/27 04:04:43;;;;;;;2.72;1.77;;;19.20;55.30;;;;;;10560031;28;20629;-22
2023/04/27 04:09:47;;;;;;;3.10;1.50;;;19.20;55.30;;;;;;10553760;28;20112;-24
2023/04/27 04:14:49;;;;;;;2.60;1.58;;;19.20;54.70;;;;;;10556501;28;20063;-24
2023/04/27 04:19:50;;;;;;;1.90;1.30;;;19.30;54.40;;;;;;10554470;28;20048;-22
2023/04/27 04:24:54;;;;;;;2.03;1.40;;;19.30;54.50;;;;;;10547027;28;20727;-24
2023/04/27 04:29:55;;;;;;;1.58;1.30;;;19.20;54.80;;;;;;10563541;28;20051;-23
2023/04/27 04:34:57;;;;;;;1.80;1.00;;;19.20;55.00;;;;;;10559128;28;20071;-23
2023/04/27 04:40:07;;;;;;;2.00;1.27;;;19.20;55.00;;;;;;10562171;28;20472;-24
2023/04/27 04:45:10;;;;;;;1.73;1.25;;;19.20;55.20;;;;;;10561933;28;20136;-23
2023/04/27 04:50:12;;;;;;;2.45;1.25;;;19.20;55.20;;;;;;10557653;28;21383;-23
2023/04/27 04:55:16;;;;;;;1.77;1.17;;;19.10;55.40;;;;;;10563017;28;20052;-23
2023/04/27 05:00:18;;;;;;;4.43;1.00;;;19.20;55.30;;;;;;10548130;28;20589;-21
2023/04/27 05:05:20;;;;;;;1.92;1.10;;;19.20;55.40;;;;;;10554757;28;20062;-23
2023/04/27 05:10:23;;;;;;;0.98;0.85;;;19.30;55.40;;;;;;10568758;28;20047;-22
2023/04/27 05:15:25;;;;;;;1.10;0.80;;;19.30;55.30;;;;;;10558855;28;20066;-23
2023/04/27 05:20:27;;;;;;;2.08;0.80;;;19.40;55.20;;;;;;10568425;28;20043;-23
2023/04/27 05:25:31;;;;;;;1.45;0.77;;;19.30;55.30;;;;;;10577747;28;20048;-22
2023/04/27 05:30:33;;;;;;;1.45;0.90;;;19.30;55.30;;;;;;10563951;28;20043;-21
2023/04/27 05:35:35;;;;;;;1.85;0.80;;;19.40;55.20;;;;;;10564633;28;20051;-23
2023/04/27 05:40:38;;;;;;;1.23;0.90;;;19.30;55.30;;;;;;10572171;28;20126;-22
2023/04/27 05:45:40;;;;;;;0.80;0.57;;;19.40;55.30;;;;;;10576267;28;20044;-23
2023/04/27 05:50:42;;;;;;;1.38;0.77;;;19.40;55.40;;;;;;10564818;28;20112;-23
2023/04/27 05:55:45;;;;;;;0.80;0.52;;;19.40;55.30;;;;;;10561155;28;20727;-23
2023/04/27 06:00:47;;;;;;;2.28;0.90;;;19.50;55.30;;;;;;10568153;28;20134;-23
2023/04/27 06:05:54;;;;;;;2.13;0.85;;;19.60;55.10;;;;;;10564292;28;20078;-23
2023/04/27 06:10:57;;;;;;;1.13;0.70;;;19.60;55.10;;;;;;10558942;28;20090;-23
2023/04/27 06:15:59;;;;;;;0.95;0.75;;;19.60;54.90;;;;;;10564944;28;20142;-22
2023/04/27 06:21:01;;;;;;;1.17;0.88;;;19.60;54.90;;;;;;10562615;28;20047;-24
2023/04/27 06:26:05;;;;;;;2.13;1.55;;;19.60;55.00;;;;;;10573480;28;20051;-22
2023/04/27 06:31:07;;;;;;;2.92;0.60;;;19.70;54.80;;;;;;10551948;28;20056;-22
2023/04/27 06:36:09;;;;;;;1.00;0.68;;;19.80;54.70;;;;;;10558114;28;20448;-23
2023/04/27 06:41:12;;;;;;;1.20;0.68;;;19.80;54.80;;;;;;10559453;28;20040;-23
2023/04/27 06:46:14;;;;;;;2.28;0.80;;;19.80;54.70;;;;;;10556512;28;20500;-22
2023/04/27 06:51:16;;;;;;;3.85;1.58;;;19.90;54.60;;;;;;10568053;28;20172;-23
2023/04/27 06:56:19;;;;;;;3.92;1.60;;;20.00;54.30;;;;;;10559696;28;20172;-23
2023/04/27 07:01:21;;;;;;;2.33;1.10;;;20.00;54.20;;;;;;10551341;28;20067;-22
2023/04/27 07:06:24;;;;;;;5.38;1.02;;;20.10;54.30;;;;;;10559000;28;20131;-23
2023/04/27 07:11:27;;;;;;;1.65;0.90;;;20.10;54.10;;;;;;10565207;28;20055;-21
2023/04/27 07:16:29;;;;;;;2.35;1.50;;;20.10;54.00;;;;;;10543537;28;20048;-23
2023/04/27 07:21:32;;;;;;;4.65;1.30;;;20.10;54.10;;;;;;10551931;28;20050;-23
2023/04/27 07:26:35;;;;;;;4.28;2.13;;;20.10;54.20;;;;;;10556677;28;20071;-23
2023/04/27 07:31:37;;;;;;;3.08;1.30;;;20.10;54.20;;;;;;10555330;28;20100;-23
2023/04/27 07:36:39;;;;;;;4.78;1.10;;;20.00;54.80;;;;;;10567991;28;20132;-22
2023/04/27 07:41:43;;;;;;;3.90;1.40;;;20.10;53.40;;;;;;10558410;28;20039;-23
2023/04/27 07:46:46;;;;;;;3.38;1.67;;;20.10;52.80;;;;;;10552898;28;20044;-22
2023/04/27 07:51:48;;;;;;;4.25;1.60;;;20.10;52.50;;;;;;10556637;28;20050;-23
2023/04/27 07:56:52;;;;;;;3.42;1.30;;;20.10;52.50;;;;;;10568718;28;20047;-24
2023/04/27 08:01:54;;;;;;;2.78;1.08;;;20.20;52.20;;;;;;10560194;28;20051;-23
2023/04/27 08:06:55;;;;;;;6.35;1.48;;;20.00;52.40;;;;;;10560926;28;20138;-24
2023/04/27 08:11:59;;;;;;;1.77;0.95;;;20.10;51.80;;;;;;10561113;28;20408;-23
2023/04/27 08:17:01;;;;;;;2.50;1.13;;;20.20;51.30;;;;;;10557852;28;20385;-23
2023/04/27 08:22:02;;;;;;;3.15;1.15;;;20.20;50.80;;;;;;10554295;28;20123;-23
2023/04/27 08:27:08;;;;;;;1.30;0.90;;;20.20;50.60;;;;;;10565450;28;20527;-24
2023/04/27 08:32:10;;;;;;;3.80;1.08;;;20.20;50.80;;;;;;10550667;28;20072;-22
2023/04/27 08:37:12;;;;;;;8.77;1.83;;;20.20;51.00;;;;;;10546074;28;20084;-23
2023/04/27 08:42:15;;;;;;;2.38;1.23;;;20.20;51.00;;;;;;10554554;28;20135;-23
2023/04/27 08:47:17;;;;;;;9.10;2.53;;;20.20;51.30;;;;;;10559134;28;20524;-22
2023/04/27 08:52:19;;;;;;;6.13;2.42;;;20.20;51.60;;;;;;10572620;28;20047;-23
2023/04/27 08:57:22;;;;;;;3.45;1.40;;;20.30;51.50;;;;;;10571940;28;20040;-24
2023/04/27 09:02:26;;;;;;;3.17;1.15;;;20.40;51.50;;;;;;10563006;28;20075;-24
2023/04/27 09:07:27;;;;;;;1.95;0.90;;;20.40;51.50;;;;;;10558304;28;20052;-24
2023/04/27 09:12:31;;;;;;;7.47;1.85;;;20.40;52.00;;;;;;10568904;28;20048;-24
2023/04/27 09:17:33;;;;;;;6.00;1.83;;;20.40;51.50;;;;;;10560332;28;20114;-23
2023/04/27 09:22:43;;;;;;;3.58;1.00;;;20.40;51.40;;;;;;10560689;28;20047;-24
2023/04/27 09:27:46;;;;;;;2.15;0.95;;;20.50;51.30;;;;;;10563050;28;20566;-22
2023/04/27 09:32:56;;;;;;;6.63;1.60;;;20.50;51.30;;;;;;10560417;28;20047;-24
2023/04/27 09:37:59;;;;;;;5.50;1.20;;;20.50;51.10;;;;;;10559646;28;20130;-25
2023/04/27 09:43:02;;;;;;;3.60;1.20;;;20.60;51.40;;;;;;10557643;28;20090;-24
2023/04/27 09:48:06;;;;;;;7.22;0.98;;;20.50;51.50;;;;;;10564553;28;20040;-24
2023/04/27 09:53:10;;;;;;;2.78;1.05;;;20.50;51.50;;;;;;10559744;28;20154;-23
2023/04/27 09:58:42;;;;;;;5.65;1.20;;;20.70;51.40;;;;;;10563339;28;20093;-24
2023/04/27 10:03:56;;;;;;;4.60;0.93;;;20.50;50.40;;;;;;10559514;28;20122;-23
2023/04/27 10:08:58;;;;;;;1.55;1.10;;;20.70;51.40;;;;;;10566938;28;20214;-23
2023/04/27 10:14:07;;;;;;;2.95;0.90;;;20.70;51.40;;;;;;10560721;28;20078;-23
2023/04/27 10:19:10;;;;;;;1.02;0.70;;;20.80;51.30;;;;;;10567497;28;20043;-24
2023/04/27 10:24:12;;;;;;;2.88;0.70;;;20.70;51.70;;;;;;10566828;28;20043;-24
2023/04/27 10:29:17;;;;;;;1.70;1.00;;;20.80;51.50;;;;;;10567056;28;20043;-24
2023/04/27 10:34:20;;;;;;;2.80;0.70;;;20.80;51.30;;;;;;10557802;28;20043;-24
2023/04/27 10:39:24;;;;;;;3.88;0.80;;;20.90;51.40;;;;;;10568214;28;20039;-24
2023/04/27 10:44:28;;;;;;;1.80;0.88;;;21.00;51.00;;;;;;10563458;28;20089;-23
2023/04/27 10:49:30;;;;;;;3.42;1.17;;;21.40;49.60;;;;;;10557312;28;20043;-24
2023/04/27 10:54:33;;;;;;;4.20;1.42;;;21.10;50.90;;;;;;10568153;28;20502;-23
2023/04/27 10:59:48;;;;;;;3.10;0.70;;;21.10;50.10;;;;;;10557915;28;20044;-24
2023/04/27 11:04:50;;;;;;;3.00;0.95;;;21.20;51.00;;;;;;10548019;28;20047;-24
2023/04/27 11:09:52;;;;;;;2.00;1.00;;;21.10;51.40;;;;;;10556017;28;20480;-24
2023/04/27 11:14:58;;;;;;;2.10;0.88;;;21.50;50.60;;;;;;10571108;28;20047;-24
2023/04/27 11:20:00;;;;;;;2.05;0.90;;;21.40;50.70;;;;;;10558191;28;20050;-24
2023/04/27 11:25:03;;;;;;;1.70;0.68;;;21.30;51.00;;;;;;10557245;28;20480;-22
2023/04/27 11:30:19;;;;;;;1.10;0.80;;;21.00;51.00;;;;;;10562524;28;20066;-24
2023/04/27 11:35:31;;;;;;;1.35;0.88;;;21.50;50.50;;;;;;10552421;28;20115;-24
2023/04/27 11:40:34;;;;;;;3.72;1.30;;;21.90;49.80;;;;;;10563493;28;20059;-24
2023/04/27 11:45:42;;;;;;;2.30;0.90;;;21.70;50.10;;;;;;10563909;28;20134;-24
2023/04/27 11:50:47;;;;;;;1.02;0.80;;;21.60;50.20;;;;;;10555036;28;20151;-24
2023/04/27 11:55:52;;;;;;;2.67;0.90;;;22.10;49.40;;;;;;10552807;28;20048;-25
2023/04/27 12:00:56;;;;;;;1.02;0.75;;;21.90;50.00;;;;;;10548212;28;20052;-25
2023/04/27 12:05:58;;;;;;;1.35;0.73;;;21.90;50.00;;;;;;10553479;28;20135;-25
2023/04/27 12:11:00;;;;;;;;;;;22.50;48.20;;;;;;10564451;28;20044;-24
2023/04/27 12:16:04;;;;;;;2.67;1.50;;;22.30;48.80;;;;;;10561139;28;20010;-25
2023/04/27 12:21:06;;;;;;;2.70;2.00;;;22.20;46.50;;;;;;10560740;28;20047;-24
2023/04/27 12:26:09;;;;;;;2.00;0.85;;;22.20;48.30;;;;;;10572744;28;20131;-22
2023/04/27 12:31:17;;;;;;;1.75;1.00;;;22.50;49.40;;;;;;10561902;28;20035;-24
2023/04/27 12:36:19;;;;;;;4.93;1.42;;;22.80;48.60;;;;;;10551625;28;20126;-24
2023/04/27 12:41:22;;;;;;;2.10;1.15;;;23.00;46.20;;;;;;10565417;28;20071;-23
2023/04/27 12:46:25;;;;;;;3.30;1.88;;;22.60;47.90;;;;;;10575175;28;20047;-24
2023/04/27 12:51:28;;;;;;;2.22;1.52;;;22.60;49.70;;;;;;10572054;28;20068;-23
2023/04/27 12:56:30;;;;;;;4.47;1.90;;;23.10;49.00;;;;;;10578648;28;20107;-24
2023/04/27 13:01:33;;;;;;;2.25;1.13;;;22.90;48.30;;;;;;10575773;28;20048;-24
2023/04/27 13:06:37;;;;;;;14.82;1.95;;;23.40;45.70;;;;;;10575471;28;20195;-24
2023/04/27 13:11:38;;;;;;;2.00;1.35;;;23.20;46.40;;;;;;10560360;28;20055;-24
2023/04/27 13:16:42;;;;;;;1.33;0.80;;;23.10;48.60;;;;;;10567041;28;20128;-23
2023/04/27 13:21:44;;;;;;;2.05;1.20;;;23.30;48.70;;;;;;10564010;28;20081;-23
2023/04/27 13:26:46;;;;;;;5.22;2.22;;;23.10;49.60;;;;;;10562134;28;20048;-24
2023/04/27 13:31:49;;;;;;;4.45;1.67;;;23.00;47.50;;;;;;10565810;28;20067;-24
2023/04/27 13:36:51;;;;;;;1.30;1.00;;;23.40;48.60;;;;;;10568105;28;20096;-25
2023/04/27 13:41:53;;;;;;;;;;;23.60;47.10;;;;;;10558242;28;20063;-25
2023/04/27 13:46:56;;;;;;;;;;;23.60;47.20;;;;;;10563535;28;20010;-25
2023/04/27 13:52:05;;;;;;;3.58;1.45;;;23.80;44.60;;;;;;10568419;28;20359;-23
2023/04/27 13:57:08;;;;;;;2.05;1.40;;;23.80;45.70;;;;;;10564194;28;20138;-24
2023/04/27 14:02:11;;;;;;;;;;;23.90;45.20;;;;;;10563204;27;20128;-24
2023/04/27 14:07:14;;;;;;;1.98;1.20;;;24.00;45.80;;;;;;10562065;28;20105;-24
2023/04/27 14:12:16;;;;;;;1.67;1.50;;;24.10;46.30;;;;;;10565460;28;20154;-25
2023/04/27 14:17:19;;;;;;;;;;;23.90;47.00;;;;;;10572363;28;20255;-24
2023/04/27 14:22:21;;;;;;;2.22;1.50;;;24.00;45.00;;;;;;10558538;28;20383;-24
2023/04/27 14:27:23;;;;;;;;;;;23.90;47.20;;;;;;10559718;28;20496;-23
2023/04/27 14:32:26;;;;;;;3.55;1.30;;;24.20;44.20;;;;;;10564400;28;19924;-23
2023/04/27 14:37:28;;;;;;;6.38;1.20;;;24.40;45.90;;;;;;10565249;28;20065;-23
2023/04/27 14:42:31;;;;;;;;;;;24.50;44.80;;;;;;10564496;28;20510;-23
2023/04/27 14:47:34;;;;;;;6.05;1.40;;;24.30;47.10;;;;;;10568353;28;19961;-24
2023/04/27 14:52:36;;;;;;;5.80;1.30;;;24.20;47.90;;;;;;10562598;28;20044;-24
2023/04/27 14:57:38;;;;;;;1.55;1.05;;;24.30;47.80;;;;;;10559275;28;20128;-24
2023/04/27 15:02:41;;;;;;;2.67;1.20;;;24.30;47.60;;;;;;10555593;28;20051;-23
2023/04/27 15:07:43;;;;;;;5.82;0.93;;;24.50;46.40;;;;;;10558747;28;20480;-24
2023/04/27 15:12:45;;;;;;;3.50;1.40;;;24.50;47.90;;;;;;10567765;28;20135;-25
2023/04/27 15:17:48;;;;;;;2.60;1.10;;;24.60;47.10;;;;;;10561395;28;20150;-25
2023/04/27 15:22:50;;;;;;;1.50;1.33;;;24.70;48.30;;;;;;10555694;28;20145;-25
2023/04/27 15:27:52;;;;;;;;;;;24.60;47.60;;;;;;10553024;28;20075;-25
2023/04/27 15:32:56;;;;;;;4.97;0.95;;;24.50;48.30;;;;;;10557993;28;19920;-25
2023/04/27 15:37:58;;;;;;;1.60;1.00;;;24.70;49.90;;;;;;10560787;28;20067;-24
2023/04/27 15:43:00;;;;;;;3.40;1.10;;;24.80;48.40;;;;;;10551224;28;20062;-25
2023/04/27 15:48:03;;;;;;;1.33;0.88;;;24.80;48.20;;;;;;10557937;28;20048;-25
2023/04/27 15:53:05;;;;;;;1.83;0.80;;;25.00;46.80;;;;;;10562081;28;20084;-24
2023/04/27 15:58:08;;;;;;;4.95;1.60;;;25.00;47.70;;;;;;10558990;28;20032;-24
2023/04/27 16:03:12;;;;;;;4.28;1.40;;;25.00;47.80;;;;;;10550525;28;20066;-26
2023/04/27 16:08:14;;;;;;;2.22;1.10;;;24.80;48.30;;;;;;10559695;28;20048;-25
2023/04/27 16:13:16;;;;;;;;;;;24.80;48.90;;;;;;10559035;28;20083;-25
2023/04/27 16:18:20;;;;;;;2.53;1.30;;;24.80;48.80;;;;;;10561789;28;19967;-25
2023/04/27 16:23:23;;;;;;;2.92;1.10;;;24.70;48.90;;;;;;10557772;28;20070;-24
2023/04/27 16:28:25;;;;;;;2.53;1.27;;;24.60;49.00;;;;;;10555717;28;20044;-23
2023/04/27 16:33:28;;;;;;;;;;;24.70;49.40;;;;;;10560101;28;20047;-24
2023/04/27 16:38:30;;;;;;;5.28;1.65;;;24.70;48.80;;;;;;10552086;28;19963;-26
2023/04/27 16:43:33;;;;;;;3.53;1.70;;;24.70;49.20;;;;;;10554774;28;20056;-25
2023/04/27 16:48:36;;;;;;;3.88;2.00;;;24.60;49.10;;;;;;10558486;28;20158;-25
2023/04/27 16:53:38;;;;;;;13.50;3.13;;;24.60;49.40;;;;;;10564181;28;20092;-25
2023/04/27 16:58:40;;;;;;;14.98;4.43;;;24.60;50.40;;;;;;10569058;28;20127;-24
2023/04/27 17:03:43;;;;;;;5.28;1.50;;;24.40;51.30;;;;;;10563979;28;20442;-24
2023/04/27 17:08:46;;;;;;;3.53;1.30;;;24.50;51.40;;;;;;10569965;28;20134;-24
2023/04/27 17:13:49;;;;;;;43.78;16.27;;;24.60;54.10;;;;;;10562065;28;20471;-26
2023/04/27 17:18:54;;;;;;;9.05;5.03;;;24.90;56.10;;;;;;10573793;28;20043;-24
2023/04/27 17:23:56;;;;;;;18.77;4.70;;;24.90;50.90;;;;;;10556462;28;20068;-23
2023/04/27 17:29:00;;;;;;;;;;;24.80;52.30;;;;;;10556681;28;20079;-23
2023/04/27 17:34:04;;;;;;;5.55;2.22;;;24.70;50.40;;;;;;10565224;28;19924;-25
2023/04/27 17:39:06;;;;;;;3.15;2.30;;;24.60;49.80;;;;;;10555835;28;20042;-24
2023/04/27 17:44:08;;;;;;;4.93;2.30;;;24.40;49.60;;;;;;10557248;28;20076;-26
2023/04/27 17:49:11;;;;;;;4.57;2.40;;;24.30;49.40;;;;;;10564014;28;20104;-24
2023/04/27 17:54:13;;;;;;;2.60;1.90;;;24.30;49.30;;;;;;10572551;28;20142;-25
2023/04/27 17:59:15;;;;;;;3.17;1.73;;;24.20;49.00;;;;;;10560146;28;20055;-24
2023/04/27 18:04:18;;;;;;;3.10;2.15;;;24.10;48.80;;;;;;10567646;28;20641;-25
2023/04/27 18:09:20;;;;;;;3.85;1.50;;;24.10;49.10;;;;;;10566317;28;20123;-23
2023/04/27 18:14:22;;;;;;;3.95;1.70;;;24.10;49.50;;;;;;10546131;28;20048;-24
2023/04/27 18:19:25;;;;;;;;;;;24.10;49.60;;;;;;10571468;28;20070;-25
2023/04/27 18:24:27;;;;;;;3.90;1.48;;;24.00;49.60;;;;;;10567044;28;20010;-24
2023/04/27 18:29:29;;;;;;;;;;;24.00;49.80;;;;;;10562569;28;20075;-25
2023/04/27 18:34:32;;;;;;;5.78;1.42;;;23.90;50.00;;;;;;10563554;28;20370;-25
2023/04/27 18:39:34;;;;;;;2.15;1.17;;;23.90;50.20;;;;;;10559306;28;20109;-24
2023/04/27 18:44:36;;;;;;;;;;;23.90;50.40;;;;;;10569729;28;20154;-24
2023/04/27 18:49:40;;;;;;;2.45;1.70;;;23.80;50.30;;;;;;10560671;28;19923;-22
2023/04/27 18:54:42;;;;;;;4.57;1.40;;;23.80;50.50;;;;;;10556158;28;20146;-23
2023/04/27 18:59:44;;;;;;;2.60;1.70;;;23.70;50.50;;;;;;10550733;28;20096;-25
2023/04/27 19:04:47;;;;;;;4.03;1.40;;;23.60;50.50;;;;;;10549096;28;20151;-24
2023/04/27 19:09:50;;;;;;;7.75;2.10;;;23.60;50.70;;;;;;10558338;28;20047;-26
2023/04/27 19:14:52;;;;;;;6.10;1.70;;;23.60;50.80;;;;;;10565630;28;20441;-24
2023/04/27 19:19:55;;;;;;;;;;;23.60;50.90;;;;;;10564994;28;20042;-24
2023/04/27 19:24:58;;;;;;;5.93;1.75;;;23.50;50.80;;;;;;10562161;28;20355;-23
2023/04/27 19:30:02;;;;;;;3.42;1.52;;;23.50;50.90;;;;;;10561496;28;20052;-25
2023/04/27 19:35:10;;;;;;;2.80;2.05;;;23.40;51.10;;;;;;10553950;28;20131;-24
2023/04/27 19:40:12;;;;;;;7.25;2.42;;;23.40;51.20;;;;;;10569521;28;20134;-23
2023/04/27 19:45:15;;;;;;;3.17;2.03;;;23.30;50.90;;;;;;10562469;28;20488;-24
2023/04/27 19:50:19;;;;;;;3.60;1.90;;;23.40;51.40;;;;;;10554344;28;20122;-24
2023/04/27 19:55:22;;;;;;;4.93;2.00;;;23.30;51.60;;;;;;10547303;28;20520;-24
2023/04/27 20:00:24;;;;;;;4.32;2.30;;;23.20;51.30;;;;;;10562564;28;20044;-23
2023/04/27 20:05:27;;;;;;;10.60;2.55;;;23.20;51.70;;;;;;10556817;28;20093;-24
2023/04/27 20:10:29;;;;;;;5.75;2.92;;;23.20;51.90;;;;;;10560108;28;20070;-24
2023/04/27 20:15:31;;;;;;;;;;;23.10;51.70;;;;;;10561574;28;20055;-24
2023/04/27 20:20:34;;;;;;;5.30;2.03;;;23.10;51.70;;;;;;10557509;28;19959;-25
2023/04/27 20:25:36;;;;;;;6.93;2.10;;;23.00;52.00;;;;;;10552361;28;20041;-25
2023/04/27 20:30:38;;;;;;;5.45;2.88;;;23.00;51.80;;;;;;10557198;28;20770;-22
2023/04/27 20:35:41;;;;;;;4.47;2.00;;;22.90;51.90;;;;;;10562862;28;20143;-23
2023/04/27 20:40:43;;;;;;;3.63;1.30;;;22.90;52.00;;;;;;10566007;28;20104;-23
2023/04/27 20:45:45;;;;;;;5.00;2.60;;;22.70;51.80;;;;;;10562400;28;20044;-23
2023/04/27 20:50:49;;;;;;;4.75;2.38;;;22.70;52.20;;;;;;10562721;28;20070;-24
2023/04/27 20:55:51;;;;;;;5.85;2.35;;;22.70;52.10;;;;;;10567311;28;20051;-23
2023/04/27 21:00:52;;;;;;;;;;;22.60;52.20;;;;;;10562568;28;20047;-23
2023/04/27 21:05:55;;;;;;;6.67;3.40;;;22.60;52.20;;;;;;10571932;28;19937;-24
2023/04/27 21:10:57;;;;;;;8.95;3.47;;;22.60;52.20;;;;;;10566836;28;20127;-23
2023/04/27 21:15:59;;;;;;;4.57;2.70;;;22.40;52.70;;;;;;10564265;28;20083;-23
2023/04/27 21:21:03;;;;;;;7.15;3.08;;;22.50;52.30;;;;;;10558460;28;20043;-24
2023/04/27 21:26:06;;;;;;;4.55;2.63;;;22.50;52.50;;;;;;10564698;28;20535;-24
2023/04/27 21:31:08;;;;;;;6.70;3.25;;;22.40;52.50;;;;;;10573018;28;20050;-23
2023/04/27 21:36:12;;;;;;;15.43;3.13;;;22.30;51.20;;;;;;10564418;28;20043;-22
2023/04/27 21:41:15;;;;;;;8.07;3.28;;;22.20;53.10;;;;;;10568325;28;20055;-23
2023/04/27 21:46:17;;;;;;;8.70;3.90;;;22.00;53.30;;;;;;10548063;28;20059;-23
2023/04/27 21:51:20;;;;;;;;;;;22.10;53.30;;;;;;10572965;28;20043;-24
2023/04/27 21:56:22;;;;;;;7.65;3.15;;;22.30;52.90;;;;;;10566045;28;19972;-24
2023/04/27 22:01:25;;;;;;;;;;;22.30;52.90;;;;;;10562686;28;20055;-23
2023/04/27 22:06:29;;;;;;;7.45;3.97;;;22.20;52.90;;;;;;10572620;28;19963;-30
2023/04/27 22:11:31;;;;;;;8.93;4.80;;;22.10;53.00;;;;;;10562779;28;20479;-24
2023/04/27 22:16:33;;;;;;;6.15;3.58;;;22.10;53.00;;;;;;10570590;28;20059;-24
2023/04/27 22:21:36;;;;;;;7.43;4.05;;;22.10;53.00;;;;;;10560211;28;20093;-23
2023/04/27 22:26:38;;;;;;;3.85;2.70;;;22.00;53.20;;;;;;10560416;28;20080;-23
2023/04/27 22:31:40;;;;;;;7.20;4.30;;;21.90;53.30;;;;;;10566009;28;20480;-23
2023/04/27 22:36:43;;;;;;;;;;;22.00;53.10;;;;;;10547016;28;20058;-23
2023/04/27 22:41:45;;;;;;;6.88;4.35;;;22.00;53.10;;;;;;10555489;28;19923;-24
2023/04/27 22:46:47;;;;;;;;;;;22.00;53.20;;;;;;10566797;28;20050;-25
2023/04/27 22:51:52;;;;;;;7.57;4.63;;;22.00;53.00;;;;;;10567797;28;19946;-23
2023/04/27 22:56:55;;;;;;;5.82;3.22;;;22.00;53.20;;;;;;10564081;28;20125;-23
2023/04/27 23:01:56;;;;;;;6.15;3.67;;;22.00;53.10;;;;;;10564107;28;20051;-23
2023/04/27 23:07:00;;;;;;;3.85;2.53;;;21.90;53.20;;;;;;10570152;28;20130;-23
2023/04/27 23:12:02;;;;;;;7.18;3.75;;;21.90;53.10;;;;;;10563346;28;20048;-24
2023/04/27 23:17:06;;;;;;;9.25;5.28;;;21.90;53.40;;;;;;10562544;28;20188;-22
2023/04/27 23:22:09;;;;;;;8.88;4.65;;;21.90;53.40;;;;;;10563711;28;20044;-23
2023/04/27 23:27:11;;;;;;;8.45;4.50;;;21.80;53.60;;;;;;10561379;28;20040;-22
2023/04/27 23:32:12;;;;;;;8.25;4.63;;;21.80;53.40;;;;;;10541459;28;20082;-22
2023/04/27 23:37:16;;;;;;;9.02;4.72;;;21.80;53.40;;;;;;10562192;28;20123;-24
2023/04/27 23:42:18;;;;;;;11.23;5.75;;;21.80;53.60;;;;;;10570888;28;20047;-24
2023/04/27 23:47:19;;;;;;;7.85;4.38;;;21.70;53.60;;;;;;10570158;28;20048;-23
2023/04/27 23:52:23;;;;;;;10.70;6.45;;;21.70;53.70;;;;;;10571613;28;20043;-26
2023/04/27 23:57:25;;;;;;;11.18;6.90;;;21.70;53.70;;;;;;10570283;28;20043;-24
